sensor_id;sensor_type;location;lat;lon;timestamp;pressure;altitude;pressure_sealevel;temperature;humidity
59588;BME280;45412;54.472;18.464;2023-03-31T00:00:33;98425.06;;;8.69;96.31
59588;BME280;45412;54.472;18.464;2023-03-31T00:03:19;98427.58;;;8.66;96.62
59588;BME280;45412;54.472;18.464;2023-03-31T00:06:11;98421.95;;;8.64;96.67
59588;BME280;45412;54.472;18.464;2023-03-31T00:09:13;98427.00;;;8.63;96.82
59588;BME280;45412;54.472;18.464;2023-03-31T00:12:01;98422.99;;;8.63;97.01
59588;BME280;45412;54.472;18.464;2023-03-31T00:14:47;98421.31;;;8.62;97.17
59588;BME280;45412;54.472;18.464;2023-03-31T00:17:34;98419.56;;;8.62;97.48
59588;BME280;45412;54.472;18.464;2023-03-31T00:20:21;98412.44;;;8.62;97.46
59588;BME280;45412;54.472;18.464;2023-03-31T00:23:08;98406.02;;;8.61;97.68
59588;BME280;45412;54.472;18.464;2023-03-31T00:25:55;98404.88;;;8.62;97.13
59588;BME280;45412;54.472;18.464;2023-03-31T00:28:42;98405.22;;;8.60;97.13
59588;BME280;45412;54.472;18.464;2023-03-31T00:31:29;98403.30;;;8.60;96.89
59588;BME280;45412;54.472;18.464;2023-03-31T00:34:15;98408.89;;;8.59;96.48
59588;BME280;45412;54.472;18.464;2023-03-31T00:37:03;98409.52;;;8.56;96.58
59588;BME280;45412;54.472;18.464;2023-03-31T00:39:49;98407.19;;;8.52;96.84
59588;BME280;45412;54.472;18.464;2023-03-31T00:42:40;98409.55;;;8.50;96.79
59588;BME280;45412;54.472;18.464;2023-03-31T00:45:29;98407.46;;;8.48;97.12
59588;BME280;45412;54.472;18.464;2023-03-31T00:48:18;98408.27;;;8.44;97.48
59588;BME280;45412;54.472;18.464;2023-03-31T00:51:06;98407.03;;;8.42;97.26
59588;BME280;45412;54.472;18.464;2023-03-31T00:53:57;98405.06;;;8.41;97.49
59588;BME280;45412;54.472;18.464;2023-03-31T00:56:47;98405.84;;;8.40;97.75
59588;BME280;45412;54.472;18.464;2023-03-31T00:59:45;98411.84;;;8.38;97.97
59588;BME280;45412;54.472;18.464;2023-03-31T01:02:33;98405.24;;;8.35;98.30
59588;BME280;45412;54.472;18.464;2023-03-31T01:05:47;98408.01;;;8.34;98.48
59588;BME280;45412;54.472;18.464;2023-03-31T01:08:36;98407.77;;;8.33;98.46
59588;BME280;45412;54.472;18.464;2023-03-31T01:11:25;98403.89;;;8.32;98.80
59588;BME280;45412;54.472;18.464;2023-03-31T01:14:13;98400.01;;;8.32;98.62
59588;BME280;45412;54.472;18.464;2023-03-31T01:17:00;98396.27;;;8.33;98.52
59588;BME280;45412;54.472;18.464;2023-03-31T01:52:59;98398.98;;;8.36;99.21
59588;BME280;45412;54.472;18.464;2023-03-31T01:56:20;98392.84;;;8.37;99.26
59588;BME280;45412;54.472;18.464;2023-03-31T01:59:13;98394.42;;;8.39;99.74
59588;BME280;45412;54.472;18.464;2023-03-31T02:02:14;98389.80;;;8.40;99.53
59588;BME280;45412;54.472;18.464;2023-03-31T02:05:21;98390.24;;;8.41;99.22
59588;BME280;45412;54.472;18.464;2023-03-31T02:08:13;98391.63;;;8.41;99.49
59588;BME280;45412;54.472;18.464;2023-03-31T02:11:02;98382.86;;;8.38;99.16
59588;BME280;45412;54.472;18.464;2023-03-31T02:13:52;98389.02;;;8.38;99.43
59588;BME280;45412;54.472;18.464;2023-03-31T02:16:42;98384.70;;;8.35;99.59
59588;BME280;45412;54.472;18.464;2023-03-31T02:19:38;98388.30;;;8.33;99.64
59588;BME280;45412;54.472;18.464;2023-03-31T02:22:30;98388.54;;;8.28;99.82
59588;BME280;45412;54.472;18.464;2023-03-31T02:25:22;98389.77;;;8.27;99.88
59588;BME280;45412;54.472;18.464;2023-03-31T02:28:17;98390.83;;;8.25;99.98
59588;BME280;45412;54.472;18.464;2023-03-31T02:31:29;98389.09;;;8.21;100.00
59588;BME280;45412;54.472;18.464;2023-03-31T02:34:17;98387.57;;;8.16;100.00
59588;BME280;45412;54.472;18.464;2023-03-31T02:37:04;98386.10;;;8.15;100.00
59588;BME280;45412;54.472;18.464;2023-03-31T02:39:54;98386.44;;;8.15;100.00
59588;BME280;45412;54.472;18.464;2023-03-31T02:42:42;98386.41;;;8.15;100.00
59588;BME280;45412;54.472;18.464;2023-03-31T02:45:49;98378.26;;;8.15;100.00
59588;BME280;45412;54.472;18.464;2023-03-31T02:48:49;98374.65;;;8.18;100.00
59588;BME280;45412;54.472;18.464;2023-03-31T02:55:04;98375.95;;;8.22;100.00
59588;BME280;45412;54.472;18.464;2023-03-31T02:58:04;98372.64;;;8.25;100.00
59588;BME280;45412;54.472;18.464;2023-03-31T03:01:18;98374.39;;;8.27;100.00
59588;BME280;45412;54.472;18.464;2023-03-31T03:07:54;98374.87;;;8.33;100.00
59588;BME280;45412;54.472;18.464;2023-03-31T03:11:18;98371.26;;;8.35;100.00
59588;BME280;45412;54.472;18.464;2023-03-31T03:14:22;98372.49;;;8.37;100.00
59588;BME280;45412;54.472;18.464;2023-03-31T03:17:41;98369.87;;;8.41;100.00
59588;BME280;45412;54.472;18.464;2023-03-31T03:20:34;98359.79;;;8.41;100.00
59588;BME280;45412;54.472;18.464;2023-03-31T03:23:20;98364.64;;;8.40;100.00
59588;BME280;45412;54.472;18.464;2023-03-31T03:26:07;98360.21;;;8.40;100.00
59588;BME280;45412;54.472;18.464;2023-03-31T03:28:55;98359.64;;;8.41;100.00
59588;BME280;45412;54.472;18.464;2023-03-31T03:31:42;98360.84;;;8.40;100.00
59588;BME280;45412;54.472;18.464;2023-03-31T03:34:28;98360.77;;;8.36;100.00
59588;BME280;45412;54.472;18.464;2023-03-31T03:37:15;98364.67;;;8.30;100.00
59588;BME280;45412;54.472;18.464;2023-03-31T03:40:03;98366.17;;;8.24;100.00
59588;BME280;45412;54.472;18.464;2023-03-31T03:42:53;98370.96;;;8.16;100.00
59588;BME280;45412;54.472;18.464;2023-03-31T03:45:40;98369.05;;;8.10;100.00
59588;BME280;45412;54.472;18.464;2023-03-31T03:48:28;98365.20;;;8.02;100.00
59588;BME280;45412;54.472;18.464;2023-03-31T03:51:15;98365.00;;;8.03;100.00
59588;BME280;45412;54.472;18.464;2023-03-31T03:54:02;98362.02;;;8.02;100.00
59588;BME280;45412;54.472;18.464;2023-03-31T03:56:49;98362.40;;;8.02;100.00
59588;BME280;45412;54.472;18.464;2023-03-31T03:59:35;98361.70;;;8.02;100.00
59588;BME280;45412;54.472;18.464;2023-03-31T04:02:22;98359.88;;;8.03;100.00
59588;BME280;45412;54.472;18.464;2023-03-31T04:05:11;98356.57;;;8.04;100.00
59588;BME280;45412;54.472;18.464;2023-03-31T04:07:58;98355.29;;;8.06;100.00
59588;BME280;45412;54.472;18.464;2023-03-31T04:10:48;98347.41;;;8.08;100.00
59588;BME280;45412;54.472;18.464;2023-03-31T04:13:34;98344.45;;;8.09;100.00
59588;BME280;45412;54.472;18.464;2023-03-31T04:16:21;98342.44;;;8.10;100.00
59588;BME280;45412;54.472;18.464;2023-03-31T04:19:08;98339.01;;;8.12;100.00
59588;BME280;45412;54.472;18.464;2023-03-31T04:21:56;98334.19;;;8.15;100.00
59588;BME280;45412;54.472;18.464;2023-03-31T04:24:49;98334.38;;;8.16;100.00
59588;BME280;45412;54.472;18.464;2023-03-31T04:27:38;98328.14;;;8.18;100.00
59588;BME280;45412;54.472;18.464;2023-03-31T04:30:32;98329.64;;;8.20;100.00
59588;BME280;45412;54.472;18.464;2023-03-31T04:33:20;98326.27;;;8.22;100.00
59588;BME280;45412;54.472;18.464;2023-03-31T04:36:11;98327.92;;;8.25;100.00
59588;BME280;45412;54.472;18.464;2023-03-31T04:39:06;98326.91;;;8.28;100.00
59588;BME280;45412;54.472;18.464;2023-03-31T04:41:58;98318.77;;;8.30;100.00
59588;BME280;45412;54.472;18.464;2023-03-31T04:44:45;98316.49;;;8.33;100.00
59588;BME280;45412;54.472;18.464;2023-03-31T04:47:31;98317.95;;;8.39;100.00
59588;BME280;45412;54.472;18.464;2023-03-31T04:50:18;98312.56;;;8.43;100.00
59588;BME280;45412;54.472;18.464;2023-03-31T04:53:05;98313.77;;;8.51;99.99
59588;BME280;45412;54.472;18.464;2023-03-31T04:55:54;98312.15;;;8.57;99.85
59588;BME280;45412;54.472;18.464;2023-03-31T04:58:41;98307.48;;;8.60;99.26
59588;BME280;45412;54.472;18.464;2023-03-31T05:01:29;98302.95;;;8.64;99.12
59588;BME280;45412;54.472;18.464;2023-03-31T05:04:26;98300.83;;;8.64;98.51
59588;BME280;45412;54.472;18.464;2023-03-31T05:07:12;98296.52;;;8.65;98.68
59588;BME280;45412;54.472;18.464;2023-03-31T05:09:59;98294.17;;;8.66;98.25
59588;BME280;45412;54.472;18.464;2023-03-31T05:12:45;98291.61;;;8.68;98.46
59588;BME280;45412;54.472;18.464;2023-03-31T05:15:32;98292.08;;;8.71;97.96
59588;BME280;45412;54.472;18.464;2023-03-31T05:18:21;98297.19;;;8.73;97.93
59588;BME280;45412;54.472;18.464;2023-03-31T05:21:16;98298.59;;;8.73;97.71
59588;BME280;45412;54.472;18.464;2023-03-31T05:24:04;98294.38;;;8.71;97.90
59588;BME280;45412;54.472;18.464;2023-03-31T05:26:50;98294.16;;;8.67;97.84
59588;BME280;45412;54.472;18.464;2023-03-31T05:29:39;98299.45;;;8.64;98.12
59588;BME280;45412;54.472;18.464;2023-03-31T05:32:27;98297.89;;;8.64;98.48
59588;BME280;45412;54.472;18.464;2023-03-31T05:35:19;98297.16;;;8.59;98.72
59588;BME280;45412;54.472;18.464;2023-03-31T05:38:06;98295.54;;;8.52;99.10
59588;BME280;45412;54.472;18.464;2023-03-31T05:40:54;98297.27;;;8.54;99.39
59588;BME280;45412;54.472;18.464;2023-03-31T05:43:41;98298.05;;;8.53;99.44
59588;BME280;45412;54.472;18.464;2023-03-31T05:46:28;98297.70;;;8.51;99.82
59588;BME280;45412;54.472;18.464;2023-03-31T05:49:14;98293.96;;;8.51;99.70
59588;BME280;45412;54.472;18.464;2023-03-31T05:52:02;98292.95;;;8.53;99.82
59588;BME280;45412;54.472;18.464;2023-03-31T05:54:48;98288.97;;;8.56;99.91
59588;BME280;45412;54.472;18.464;2023-03-31T05:57:37;98287.05;;;8.57;99.72
59588;BME280;45412;54.472;18.464;2023-03-31T06:00:23;98287.45;;;8.58;99.62
59588;BME280;45412;54.472;18.464;2023-03-31T06:03:10;98288.45;;;8.59;99.57
59588;BME280;45412;54.472;18.464;2023-03-31T06:05:57;98282.56;;;8.58;99.53
59588;BME280;45412;54.472;18.464;2023-03-31T06:08:45;98282.17;;;8.58;99.44
59588;BME280;45412;54.472;18.464;2023-03-31T06:11:32;98282.95;;;8.56;99.86
59588;BME280;45412;54.472;18.464;2023-03-31T06:14:19;98283.06;;;8.55;99.69
59588;BME280;45412;54.472;18.464;2023-03-31T06:17:05;98280.90;;;8.55;99.62
59588;BME280;45412;54.472;18.464;2023-03-31T06:19:54;98279.91;;;8.58;99.84
59588;BME280;45412;54.472;18.464;2023-03-31T06:22:41;98277.20;;;8.64;99.75
59588;BME280;45412;54.472;18.464;2023-03-31T06:25:27;98281.17;;;8.72;99.54
59588;BME280;45412;54.472;18.464;2023-03-31T06:28:23;98281.99;;;8.78;99.22
59588;BME280;45412;54.472;18.464;2023-03-31T06:31:16;98280.44;;;8.78;98.76
59588;BME280;45412;54.472;18.464;2023-03-31T06:34:03;98282.35;;;8.81;98.68
59588;BME280;45412;54.472;18.464;2023-03-31T06:36:50;98278.80;;;8.83;98.58
59588;BME280;45412;54.472;18.464;2023-03-31T06:39:36;98280.14;;;8.86;98.37
59588;BME280;45412;54.472;18.464;2023-03-31T06:42:24;98284.45;;;8.89;98.33
59588;BME280;45412;54.472;18.464;2023-03-31T06:45:11;98279.44;;;8.92;98.34
59588;BME280;45412;54.472;18.464;2023-03-31T06:47:58;98278.84;;;8.89;97.89
59588;BME280;45412;54.472;18.464;2023-03-31T06:50:45;98278.44;;;8.91;97.90
59588;BME280;45412;54.472;18.464;2023-03-31T06:53:32;98278.77;;;8.93;97.94
59588;BME280;45412;54.472;18.464;2023-03-31T06:56:19;98275.52;;;8.95;97.55
59588;BME280;45412;54.472;18.464;2023-03-31T06:59:06;98277.74;;;8.96;97.46
59588;BME280;45412;54.472;18.464;2023-03-31T07:01:52;98279.27;;;8.99;97.42
59588;BME280;45412;54.472;18.464;2023-03-31T07:04:39;98278.88;;;9.04;97.42
59588;BME280;45412;54.472;18.464;2023-03-31T07:07:26;98279.76;;;9.10;97.16
59588;BME280;45412;54.472;18.464;2023-03-31T07:10:13;98278.05;;;9.13;97.17
59588;BME280;45412;54.472;18.464;2023-03-31T07:13:00;98279.65;;;9.18;97.32
59588;BME280;45412;54.472;18.464;2023-03-31T07:15:49;98276.80;;;9.18;97.66
59588;BME280;45412;54.472;18.464;2023-03-31T07:18:35;98278.13;;;9.14;97.91
59588;BME280;45412;54.472;18.464;2023-03-31T07:21:23;98279.23;;;9.11;98.75
59588;BME280;45412;54.472;18.464;2023-03-31T07:24:10;98279.92;;;9.10;98.87
59588;BME280;45412;54.472;18.464;2023-03-31T07:27:03;98280.72;;;9.14;99.32
59588;BME280;45412;54.472;18.464;2023-03-31T07:29:49;98278.77;;;9.18;99.62
59588;BME280;45412;54.472;18.464;2023-03-31T07:32:36;98277.52;;;9.22;99.39
59588;BME280;45412;54.472;18.464;2023-03-31T07:35:26;98278.11;;;9.19;99.14
59588;BME280;45412;54.472;18.464;2023-03-31T07:38:16;98271.38;;;9.17;98.98
59588;BME280;45412;54.472;18.464;2023-03-31T07:41:04;98271.54;;;9.25;99.12
59588;BME280;45412;54.472;18.464;2023-03-31T07:43:55;98269.91;;;9.29;98.57
59588;BME280;45412;54.472;18.464;2023-03-31T07:46:42;98270.02;;;9.29;98.23
59588;BME280;45412;54.472;18.464;2023-03-31T07:49:31;98272.67;;;9.34;98.24
59588;BME280;45412;54.472;18.464;2023-03-31T07:52:18;98273.39;;;9.42;98.05
59588;BME280;45412;54.472;18.464;2023-03-31T07:55:06;98265.77;;;9.54;97.56
59588;BME280;45412;54.472;18.464;2023-03-31T07:57:53;98267.42;;;9.74;96.23
59588;BME280;45412;54.472;18.464;2023-03-31T08:00:40;98262.31;;;10.07;95.06
59588;BME280;45412;54.472;18.464;2023-03-31T08:03:26;98256.77;;;10.36;94.03
59588;BME280;45412;54.472;18.464;2023-03-31T08:06:22;98251.13;;;10.63;92.74
59588;BME280;45412;54.472;18.464;2023-03-31T08:09:09;98245.79;;;10.77;91.76
59588;BME280;45412;54.472;18.464;2023-03-31T08:11:55;98250.89;;;10.83;91.14
59588;BME280;45412;54.472;18.464;2023-03-31T08:14:42;98252.45;;;10.94;90.43
59588;BME280;45412;54.472;18.464;2023-03-31T08:17:28;98254.32;;;10.86;89.22
59588;BME280;45412;54.472;18.464;2023-03-31T08:20:15;98248.94;;;10.73;89.69
59588;BME280;45412;54.472;18.464;2023-03-31T08:23:02;98248.54;;;10.64;90.75
59588;BME280;45412;54.472;18.464;2023-03-31T08:25:51;98247.48;;;10.59;91.10
59588;BME280;45412;54.472;18.464;2023-03-31T08:28:38;98248.82;;;10.53;91.39
59588;BME280;45412;54.472;18.464;2023-03-31T08:31:25;98247.09;;;10.61;91.79
59588;BME280;45412;54.472;18.464;2023-03-31T08:34:15;98244.42;;;10.73;91.53
59588;BME280;45412;54.472;18.464;2023-03-31T08:37:02;98239.91;;;10.93;90.55
59588;BME280;45412;54.472;18.464;2023-03-31T08:39:51;98241.36;;;11.50;89.31
59588;BME280;45412;54.472;18.464;2023-03-31T08:42:42;98231.23;;;12.21;87.39
59588;BME280;45412;54.472;18.464;2023-03-31T08:51:26;98226.77;;;12.55;81.06
59588;BME280;45412;54.472;18.464;2023-03-31T08:54:39;98228.41;;;12.22;82.14
59588;BME280;45412;54.472;18.464;2023-03-31T08:58:06;98231.65;;;11.96;83.17
59588;BME280;45412;54.472;18.464;2023-03-31T09:04:45;98239.50;;;11.83;85.08
59588;BME280;45412;54.472;18.464;2023-03-31T09:14:40;98233.73;;;11.34;87.62
59588;BME280;45412;54.472;18.464;2023-03-31T09:17:32;98232.98;;;11.49;87.34
59588;BME280;45412;54.472;18.464;2023-03-31T09:20:29;98227.00;;;11.87;86.16
59588;BME280;45412;54.472;18.464;2023-03-31T09:23:35;98225.36;;;12.30;84.95
59588;BME280;45412;54.472;18.464;2023-03-31T09:26:40;98219.27;;;12.71;83.92
59588;BME280;45412;54.472;18.464;2023-03-31T09:32:32;98219.98;;;13.06;79.93
59588;BME280;45412;54.472;18.464;2023-03-31T09:35:22;98225.95;;;12.82;78.42
59588;BME280;45412;54.472;18.464;2023-03-31T09:38:11;98222.57;;;12.56;79.29
59588;BME280;45412;54.472;18.464;2023-03-31T09:41:02;98223.63;;;12.33;80.02
59588;BME280;45412;54.472;18.464;2023-03-31T09:43:49;98228.92;;;12.25;80.84
59588;BME280;45412;54.472;18.464;2023-03-31T09:46:37;98231.84;;;12.28;80.80
59588;BME280;45412;54.472;18.464;2023-03-31T09:49:32;98230.70;;;12.41;80.39
59588;BME280;45412;54.472;18.464;2023-03-31T09:52:37;98226.10;;;12.52;79.35
59588;BME280;45412;54.472;18.464;2023-03-31T09:55:34;98231.30;;;12.67;79.34
59588;BME280;45412;54.472;18.464;2023-03-31T09:58:26;98234.84;;;12.80;78.50
59588;BME280;45412;54.472;18.464;2023-03-31T10:01:14;98231.70;;;12.85;78.84
59588;BME280;45412;54.472;18.464;2023-03-31T10:04:01;98232.23;;;13.02;77.09
59588;BME280;45412;54.472;18.464;2023-03-31T10:06:51;98232.10;;;13.06;77.77
59588;BME280;45412;54.472;18.464;2023-03-31T10:09:39;98231.29;;;12.99;77.58
59588;BME280;45412;54.472;18.464;2023-03-31T10:12:30;98228.95;;;12.78;77.79
59588;BME280;45412;54.472;18.464;2023-03-31T10:15:27;98233.41;;;12.57;79.47
59588;BME280;45412;54.472;18.464;2023-03-31T10:18:16;98234.23;;;12.35;80.11
59588;BME280;45412;54.472;18.464;2023-03-31T10:21:07;98235.85;;;12.13;80.37
59588;BME280;45412;54.472;18.464;2023-03-31T10:24:07;98237.52;;;11.90;80.44
59588;BME280;45412;54.472;18.464;2023-03-31T10:26:56;98236.13;;;11.85;82.02
59588;BME280;45412;54.472;18.464;2023-03-31T10:29:43;98238.48;;;11.94;82.57
59588;BME280;45412;54.472;18.464;2023-03-31T10:32:33;98232.03;;;12.11;82.84
59588;BME280;45412;54.472;18.464;2023-03-31T10:35:32;98231.45;;;12.78;81.64
59588;BME280;45412;54.472;18.464;2023-03-31T10:38:41;98233.56;;;13.18;78.38
59588;BME280;45412;54.472;18.464;2023-03-31T10:41:31;98229.70;;;13.33;76.69
59588;BME280;45412;54.472;18.464;2023-03-31T10:44:33;98226.84;;;13.43;74.74
59588;BME280;45412;54.472;18.464;2023-03-31T10:47:20;98229.54;;;13.40;74.84
59588;BME280;45412;54.472;18.464;2023-03-31T10:50:14;98234.52;;;13.31;74.30
59588;BME280;45412;54.472;18.464;2023-03-31T10:53:13;98232.67;;;13.34;74.47
59588;BME280;45412;54.472;18.464;2023-03-31T11:00:18;98227.38;;;13.75;72.57
59588;BME280;45412;54.472;18.464;2023-03-31T11:06:19;98229.93;;;14.07;71.23
59588;BME280;45412;54.472;18.464;2023-03-31T11:09:22;98228.42;;;13.86;70.94
59588;BME280;45412;54.472;18.464;2023-03-31T11:18:56;98214.95;;;13.28;72.80
59588;BME280;45412;54.472;18.464;2023-03-31T11:22:09;98221.46;;;13.09;73.23
59588;BME280;45412;54.472;18.464;2023-03-31T11:25:26;98217.44;;;12.99;74.37
59588;BME280;45412;54.472;18.464;2023-03-31T11:41:14;98201.53;;;12.35;77.08
59588;BME280;45412;54.472;18.464;2023-03-31T11:44:11;98196.69;;;12.55;78.02
59588;BME280;45412;54.472;18.464;2023-03-31T11:47:04;98204.48;;;13.67;77.11
59588;BME280;45412;54.472;18.464;2023-03-31T11:50:15;98195.63;;;14.77;71.72
59588;BME280;45412;54.472;18.464;2023-03-31T11:53:35;98191.98;;;15.54;67.91
59588;BME280;45412;54.472;18.464;2023-03-31T11:56:30;98182.27;;;15.83;68.25
59588;BME280;45412;54.472;18.464;2023-03-31T11:59:20;98179.69;;;16.04;67.69
59588;BME280;45412;54.472;18.464;2023-03-31T12:02:39;98179.49;;;16.25;65.68
59588;BME280;45412;54.472;18.464;2023-03-31T12:05:32;98178.20;;;16.54;63.40
59588;BME280;45412;54.472;18.464;2023-03-31T12:08:30;98176.91;;;16.51;62.21
59588;BME280;45412;54.472;18.464;2023-03-31T12:12:04;98171.56;;;16.58;60.98
59588;BME280;45412;54.472;18.464;2023-03-31T12:15:20;98172.87;;;16.75;61.14
59588;BME280;45412;54.472;18.464;2023-03-31T12:18:15;98166.58;;;16.83;59.01
59588;BME280;45412;54.472;18.464;2023-03-31T12:21:04;98163.36;;;16.68;59.59
59588;BME280;45412;54.472;18.464;2023-03-31T12:23:51;98162.10;;;16.55;58.53
59588;BME280;45412;54.472;18.464;2023-03-31T12:30:37;98158.70;;;16.01;58.69
59588;BME280;45412;54.472;18.464;2023-03-31T12:33:37;98160.83;;;15.73;60.03
59588;BME280;45412;54.472;18.464;2023-03-31T12:46:09;98170.34;;;14.06;68.35
59588;BME280;45412;54.472;18.464;2023-03-31T12:55:42;98175.52;;;12.83;73.93
59588;BME280;45412;54.472;18.464;2023-03-31T12:58:39;98181.11;;;12.50;74.89
59588;BME280;45412;54.472;18.464;2023-03-31T13:01:27;98174.94;;;12.26;76.89
59588;BME280;45412;54.472;18.464;2023-03-31T13:04:21;98179.45;;;12.09;77.93
59588;BME280;45412;54.472;18.464;2023-03-31T13:07:38;98177.27;;;11.97;79.01
59588;BME280;45412;54.472;18.464;2023-03-31T13:10:29;98170.13;;;11.91;79.89
59588;BME280;45412;54.472;18.464;2023-03-31T13:13:16;98162.59;;;12.01;79.74
59588;BME280;45412;54.472;18.464;2023-03-31T13:16:03;98155.31;;;12.21;79.04
59588;BME280;45412;54.472;18.464;2023-03-31T13:18:53;98155.24;;;12.45;78.78
59588;BME280;45412;54.472;18.464;2023-03-31T13:21:58;98154.52;;;12.62;78.69
59588;BME280;45412;54.472;18.464;2023-03-31T13:24:44;98151.77;;;12.73;78.49
59588;BME280;45412;54.472;18.464;2023-03-31T13:27:32;98150.68;;;12.83;79.38
59588;BME280;45412;54.472;18.464;2023-03-31T13:33:57;98142.77;;;13.04;79.50
59588;BME280;45412;54.472;18.464;2023-03-31T13:40:58;98136.58;;;13.01;78.31
59588;BME280;45412;54.472;18.464;2023-03-31T14:01:37;98108.22;;;14.07;73.20
59588;BME280;45412;54.472;18.464;2023-03-31T14:07:53;98110.80;;;14.02;73.56
59588;BME280;45412;54.472;18.464;2023-03-31T14:11:14;98108.19;;;14.08;72.20
59588;BME280;45412;54.472;18.464;2023-03-31T14:14:23;98112.21;;;14.04;71.81
59588;BME280;45412;54.472;18.464;2023-03-31T14:17:39;98102.58;;;13.92;71.65
59588;BME280;45412;54.472;18.464;2023-03-31T14:37:08;98121.79;;;13.18;77.02
59588;BME280;45412;54.472;18.464;2023-03-31T14:40:00;98120.40;;;13.01;77.49
59588;BME280;45412;54.472;18.464;2023-03-31T14:42:48;98114.55;;;12.91;78.28
59588;BME280;45412;54.472;18.464;2023-03-31T14:45:35;98114.88;;;12.89;79.29
59588;BME280;45412;54.472;18.464;2023-03-31T14:48:22;98115.77;;;12.87;79.92
59588;BME280;45412;54.472;18.464;2023-03-31T14:51:08;98115.45;;;12.88;80.26
59588;BME280;45412;54.472;18.464;2023-03-31T14:53:59;98116.54;;;12.90;80.15
59588;BME280;45412;54.472;18.464;2023-03-31T14:56:56;98114.34;;;12.86;80.28
59588;BME280;45412;54.472;18.464;2023-03-31T14:59:45;98111.52;;;12.76;80.77
59588;BME280;45412;54.472;18.464;2023-03-31T15:02:36;98111.39;;;12.58;80.72
59588;BME280;45412;54.472;18.464;2023-03-31T15:05:32;98104.29;;;12.33;81.28
59588;BME280;45412;54.472;18.464;2023-03-31T15:08:21;98101.77;;;12.10;82.40
59588;BME280;45412;54.472;18.464;2023-03-31T15:11:12;98101.29;;;11.86;83.28
59588;BME280;45412;54.472;18.464;2023-03-31T15:14:08;98103.33;;;11.60;84.28
59588;BME280;45412;54.472;18.464;2023-03-31T15:17:02;98098.86;;;11.38;84.78
59588;BME280;45412;54.472;18.464;2023-03-31T15:19:59;98099.11;;;11.17;86.22
59588;BME280;45412;54.472;18.464;2023-03-31T15:22:47;98097.25;;;10.98;86.90
59588;BME280;45412;54.472;18.464;2023-03-31T15:25:40;98101.43;;;10.84;87.46
59588;BME280;45412;54.472;18.464;2023-03-31T15:28:38;98103.42;;;10.66;87.79
59588;BME280;45412;54.472;18.464;2023-03-31T15:31:29;98110.84;;;10.45;87.89
59588;BME280;45412;54.472;18.464;2023-03-31T15:34:31;98113.99;;;10.28;88.60
59588;BME280;45412;54.472;18.464;2023-03-31T15:37:42;98113.24;;;10.07;88.67
59588;BME280;45412;54.472;18.464;2023-03-31T15:40:35;98109.65;;;9.86;89.55
59588;BME280;45412;54.472;18.464;2023-03-31T15:49:25;98103.21;;;9.54;90.93
59588;BME280;45412;54.472;18.464;2023-03-31T15:53:18;98101.08;;;9.48;91.86
59588;BME280;45412;54.472;18.464;2023-03-31T15:55:31;98095.40;;;9.44;92.22
59588;BME280;45412;54.472;18.464;2023-03-31T15:58:53;98098.05;;;9.43;92.84
59588;BME280;45412;54.472;18.464;2023-03-31T16:01:44;98097.81;;;9.41;93.20
59588;BME280;45412;54.472;18.464;2023-03-31T16:04:31;98097.93;;;9.44;93.51
59588;BME280;45412;54.472;18.464;2023-03-31T16:07:28;98093.55;;;9.43;93.28
59588;BME280;45412;54.472;18.464;2023-03-31T16:10:20;98096.31;;;9.47;93.79
59588;BME280;45412;54.472;18.464;2023-03-31T16:13:18;98098.30;;;9.47;93.39
59588;BME280;45412;54.472;18.464;2023-03-31T16:16:14;98095.79;;;9.46;93.51
59588;BME280;45412;54.472;18.464;2023-03-31T16:19:11;98094.04;;;9.40;93.30
59588;BME280;45412;54.472;18.464;2023-03-31T16:22:04;98088.45;;;9.31;92.92
59588;BME280;45412;54.472;18.464;2023-03-31T16:24:51;98094.18;;;9.29;94.13
59588;BME280;45412;54.472;18.464;2023-03-31T16:27:44;98095.96;;;9.27;94.49
59588;BME280;45412;54.472;18.464;2023-03-31T16:30:39;98095.83;;;9.23;94.15
59588;BME280;45412;54.472;18.464;2023-03-31T16:33:27;98096.60;;;9.19;94.08
59588;BME280;45412;54.472;18.464;2023-03-31T16:36:16;98102.09;;;9.15;94.56
59588;BME280;45412;54.472;18.464;2023-03-31T16:39:05;98099.48;;;9.11;95.14
59588;BME280;45412;54.472;18.464;2023-03-31T16:41:52;98101.61;;;9.08;95.41
59588;BME280;45412;54.472;18.464;2023-03-31T16:44:39;98108.16;;;9.03;95.54
59588;BME280;45412;54.472;18.464;2023-03-31T16:47:31;98107.04;;;8.95;95.67
59588;BME280;45412;54.472;18.464;2023-03-31T16:50:24;98105.44;;;8.88;96.20
59588;BME280;45412;54.472;18.464;2023-03-31T16:53:13;98105.27;;;8.80;97.14
59588;BME280;45412;54.472;18.464;2023-03-31T16:56:01;98107.08;;;8.75;97.41
59588;BME280;45412;54.472;18.464;2023-03-31T16:58:50;98105.93;;;8.72;97.91
59588;BME280;45412;54.472;18.464;2023-03-31T17:01:39;98107.40;;;8.68;98.00
59588;BME280;45412;54.472;18.464;2023-03-31T17:04:28;98102.10;;;8.64;97.90
59588;BME280;45412;54.472;18.464;2023-03-31T17:07:15;98100.56;;;8.62;98.36
59588;BME280;45412;54.472;18.464;2023-03-31T17:10:03;98098.42;;;8.57;98.69
59588;BME280;45412;54.472;18.464;2023-03-31T17:12:50;98100.00;;;8.58;98.57
59588;BME280;45412;54.472;18.464;2023-03-31T17:15:38;98103.04;;;8.56;98.90
59588;BME280;45412;54.472;18.464;2023-03-31T17:18:46;98103.45;;;8.53;99.09
59588;BME280;45412;54.472;18.464;2023-03-31T17:21:43;98098.09;;;8.43;99.33
59588;BME280;45412;54.472;18.464;2023-03-31T17:24:30;98104.77;;;8.39;99.17
59588;BME280;45412;54.472;18.464;2023-03-31T17:27:17;98104.68;;;8.33;99.69
59588;BME280;45412;54.472;18.464;2023-03-31T17:30:05;98106.80;;;8.28;99.68
59588;BME280;45412;54.472;18.464;2023-03-31T17:32:57;98105.65;;;8.21;99.80
59588;BME280;45412;54.472;18.464;2023-03-31T17:35:43;98101.42;;;8.17;99.93
59588;BME280;45412;54.472;18.464;2023-03-31T17:38:30;98093.20;;;8.11;100.00
59588;BME280;45412;54.472;18.464;2023-03-31T17:41:16;98098.25;;;8.09;100.00
59588;BME280;45412;54.472;18.464;2023-03-31T17:44:04;98096.20;;;8.06;100.00